臺北飛航情報區 - 掃描席(區管/近場)

METAR RCTP 270830Z 06020KT 9999 FEW020 27/18 Q1012 NOSIG RMK A2990(C)=

站台狀態:Online
最後更新:2020-10-27 16:30:01